sensor_id;sensor_type;location;lat;lon;timestamp;P1;durP1;ratioP1;P2;durP2;ratioP2
71395;SDS011;59888;55.814;37.132;2023-04-06T00:01:10;8.00;;;5.00;;
71395;SDS011;59888;55.814;37.132;2023-04-06T00:03:36;10.80;;;5.45;;
71395;SDS011;59888;55.814;37.132;2023-04-06T00:06:02;10.20;;;5.63;;
71395;SDS011;59888;55.814;37.132;2023-04-06T00:08:29;8.52;;;5.03;;
71395;SDS011;59888;55.814;37.132;2023-04-06T00:10:55;10.77;;;5.78;;
71395;SDS011;59888;55.814;37.132;2023-04-06T00:13:21;9.23;;;5.45;;
71395;SDS011;59888;55.814;37.132;2023-04-06T00:15:47;11.40;;;5.38;;
71395;SDS011;59888;55.814;37.132;2023-04-06T00:18:12;9.95;;;4.88;;
71395;SDS011;59888;55.814;37.132;2023-04-06T00:20:39;12.48;;;5.40;;
71395;SDS011;59888;55.814;37.132;2023-04-06T00:23:05;12.13;;;5.78;;
71395;SDS011;59888;55.814;37.132;2023-04-06T00:25:31;11.25;;;5.38;;
71395;SDS011;59888;55.814;37.132;2023-04-06T00:27:57;10.60;;;5.75;;
71395;SDS011;59888;55.814;37.132;2023-04-06T00:30:23;12.80;;;5.45;;
71395;SDS011;59888;55.814;37.132;2023-04-06T00:32:49;10.70;;;5.57;;
71395;SDS011;59888;55.814;37.132;2023-04-06T00:35:15;12.05;;;5.60;;
71395;SDS011;59888;55.814;37.132;2023-04-06T00:37:41;11.60;;;5.57;;
71395;SDS011;59888;55.814;37.132;2023-04-06T00:40:08;9.95;;;5.55;;
71395;SDS011;59888;55.814;37.132;2023-04-06T00:42:34;11.90;;;5.82;;
71395;SDS011;59888;55.814;37.132;2023-04-06T00:45:01;9.20;;;5.90;;
71395;SDS011;59888;55.814;37.132;2023-04-06T00:47:27;9.95;;;5.75;;
71395;SDS011;59888;55.814;37.132;2023-04-06T00:49:54;10.20;;;5.85;;
71395;SDS011;59888;55.814;37.132;2023-04-06T00:52:20;11.25;;;6.25;;
71395;SDS011;59888;55.814;37.132;2023-04-06T00:54:48;10.25;;;5.95;;
71395;SDS011;59888;55.814;37.132;2023-04-06T00:57:15;10.30;;;6.15;;
71395;SDS011;59888;55.814;37.132;2023-04-06T00:59:43;12.15;;;6.28;;
71395;SDS011;59888;55.814;37.132;2023-04-06T01:02:11;11.48;;;6.43;;
71395;SDS011;59888;55.814;37.132;2023-04-06T01:04:43;12.00;;;6.32;;
71395;SDS011;59888;55.814;37.132;2023-04-06T01:07:18;9.02;;;5.70;;
71395;SDS011;59888;55.814;37.132;2023-04-06T01:09:58;10.15;;;6.10;;
71395;SDS011;59888;55.814;37.132;2023-04-06T01:12:29;10.52;;;5.95;;
71395;SDS011;59888;55.814;37.132;2023-04-06T01:14:56;10.82;;;6.55;;
71395;SDS011;59888;55.814;37.132;2023-04-06T01:17:22;11.48;;;5.97;;
71395;SDS011;59888;55.814;37.132;2023-04-06T01:19:49;11.38;;;6.43;;
71395;SDS011;59888;55.814;37.132;2023-04-06T01:22:23;11.63;;;6.85;;
71395;SDS011;59888;55.814;37.132;2023-04-06T01:24:57;10.38;;;6.32;;
71395;SDS011;59888;55.814;37.132;2023-04-06T01:27:32;12.25;;;6.60;;
71395;SDS011;59888;55.814;37.132;2023-04-06T01:30:11;11.10;;;6.68;;
71395;SDS011;59888;55.814;37.132;2023-04-06T01:32:50;11.10;;;6.57;;
71395;SDS011;59888;55.814;37.132;2023-04-06T01:35:25;9.88;;;5.93;;
71395;SDS011;59888;55.814;37.132;2023-04-06T01:38:00;9.38;;;6.18;;
71395;SDS011;59888;55.814;37.132;2023-04-06T01:40:30;10.90;;;6.57;;
71395;SDS011;59888;55.814;37.132;2023-04-06T01:42:56;12.02;;;5.93;;
71395;SDS011;59888;55.814;37.132;2023-04-06T01:45:32;11.13;;;5.97;;
71395;SDS011;59888;55.814;37.132;2023-04-06T01:48:07;9.43;;;6.45;;
71395;SDS011;59888;55.814;37.132;2023-04-06T01:50:33;11.57;;;6.63;;
71395;SDS011;59888;55.814;37.132;2023-04-06T01:52:59;9.38;;;5.97;;
71395;SDS011;59888;55.814;37.132;2023-04-06T01:55:27;9.40;;;6.25;;
71395;SDS011;59888;55.814;37.132;2023-04-06T02:00:41;10.93;;;6.03;;
71395;SDS011;59888;55.814;37.132;2023-04-06T02:03:08;12.25;;;6.30;;
71395;SDS011;59888;55.814;37.132;2023-04-06T02:05:34;10.32;;;5.97;;
71395;SDS011;59888;55.814;37.132;2023-04-06T02:08:13;10.05;;;6.38;;
71395;SDS011;59888;55.814;37.132;2023-04-06T02:10:39;11.35;;;6.20;;
71395;SDS011;59888;55.814;37.132;2023-04-06T02:13:15;10.40;;;5.80;;
71395;SDS011;59888;55.814;37.132;2023-04-06T02:15:46;12.07;;;6.55;;
71395;SDS011;59888;55.814;37.132;2023-04-06T02:18:12;12.63;;;6.40;;
71395;SDS011;59888;55.814;37.132;2023-04-06T02:20:39;12.35;;;5.68;;
71395;SDS011;59888;55.814;37.132;2023-04-06T02:23:06;9.57;;;5.72;;
71395;SDS011;59888;55.814;37.132;2023-04-06T02:25:32;11.05;;;6.20;;
71395;SDS011;59888;55.814;37.132;2023-04-06T02:28:00;10.73;;;5.65;;
71395;SDS011;59888;55.814;37.132;2023-04-06T02:30:28;11.23;;;6.28;;
71395;SDS011;59888;55.814;37.132;2023-04-06T02:32:54;10.43;;;6.00;;
71395;SDS011;59888;55.814;37.132;2023-04-06T02:35:21;9.57;;;5.72;;
71395;SDS011;59888;55.814;37.132;2023-04-06T02:37:52;11.48;;;5.97;;
71395;SDS011;59888;55.814;37.132;2023-04-06T02:40:19;8.35;;;5.43;;
71395;SDS011;59888;55.814;37.132;2023-04-06T02:42:45;11.40;;;5.55;;
71395;SDS011;59888;55.814;37.132;2023-04-06T02:45:13;11.35;;;5.68;;
71395;SDS011;59888;55.814;37.132;2023-04-06T02:47:42;11.02;;;5.80;;
71395;SDS011;59888;55.814;37.132;2023-04-06T02:50:10;10.38;;;5.90;;
71395;SDS011;59888;55.814;37.132;2023-04-06T02:52:44;12.03;;;6.07;;
71395;SDS011;59888;55.814;37.132;2023-04-06T02:55:10;9.90;;;5.55;;
71395;SDS011;59888;55.814;37.132;2023-04-06T02:57:37;10.77;;;5.50;;
71395;SDS011;59888;55.814;37.132;2023-04-06T03:00:06;12.30;;;5.68;;
71395;SDS011;59888;55.814;37.132;2023-04-06T03:02:38;10.98;;;5.40;;
71395;SDS011;59888;55.814;37.132;2023-04-06T03:05:08;11.40;;;6.40;;
71395;SDS011;59888;55.814;37.132;2023-04-06T03:07:38;9.55;;;5.47;;
71395;SDS011;59888;55.814;37.132;2023-04-06T03:10:07;10.27;;;5.88;;
71395;SDS011;59888;55.814;37.132;2023-04-06T03:12:34;10.65;;;5.70;;
71395;SDS011;59888;55.814;37.132;2023-04-06T03:15:16;9.68;;;5.43;;
71395;SDS011;59888;55.814;37.132;2023-04-06T03:17:47;9.45;;;5.38;;
71395;SDS011;59888;55.814;37.132;2023-04-06T03:20:31;11.02;;;5.78;;
71395;SDS011;59888;55.814;37.132;2023-04-06T03:22:57;11.02;;;5.32;;
71395;SDS011;59888;55.814;37.132;2023-04-06T03:25:28;10.52;;;5.90;;
71395;SDS011;59888;55.814;37.132;2023-04-06T03:27:59;9.43;;;5.25;;
71395;SDS011;59888;55.814;37.132;2023-04-06T03:30:25;8.70;;;5.50;;
71395;SDS011;59888;55.814;37.132;2023-04-06T03:32:52;11.15;;;5.15;;
71395;SDS011;59888;55.814;37.132;2023-04-06T03:35:20;9.00;;;5.43;;
71395;SDS011;59888;55.814;37.132;2023-04-06T03:37:45;10.25;;;5.45;;
71395;SDS011;59888;55.814;37.132;2023-04-06T03:40:12;8.20;;;5.30;;
71395;SDS011;59888;55.814;37.132;2023-04-06T03:42:38;8.98;;;5.55;;
71395;SDS011;59888;55.814;37.132;2023-04-06T03:45:09;8.85;;;5.03;;
71395;SDS011;59888;55.814;37.132;2023-04-06T03:47:42;8.50;;;4.90;;
71395;SDS011;59888;55.814;37.132;2023-04-06T03:50:08;8.77;;;5.07;;
71395;SDS011;59888;55.814;37.132;2023-04-06T03:52:35;10.50;;;5.63;;
71395;SDS011;59888;55.814;37.132;2023-04-06T03:55:02;10.35;;;5.63;;
71395;SDS011;59888;55.814;37.132;2023-04-06T03:57:28;10.68;;;5.68;;
71395;SDS011;59888;55.814;37.132;2023-04-06T03:59:56;7.90;;;5.05;;
71395;SDS011;59888;55.814;37.132;2023-04-06T04:02:25;9.80;;;5.55;;
71395;SDS011;59888;55.814;37.132;2023-04-06T04:04:51;9.65;;;5.35;;
71395;SDS011;59888;55.814;37.132;2023-04-06T04:07:17;9.10;;;5.40;;
71395;SDS011;59888;55.814;37.132;2023-04-06T04:09:43;9.88;;;5.32;;
71395;SDS011;59888;55.814;37.132;2023-04-06T04:12:10;8.15;;;4.90;;
71395;SDS011;59888;55.814;37.132;2023-04-06T04:14:36;9.25;;;5.07;;
71395;SDS011;59888;55.814;37.132;2023-04-06T04:17:02;8.63;;;4.85;;
71395;SDS011;59888;55.814;37.132;2023-04-06T04:19:27;9.00;;;5.38;;
71395;SDS011;59888;55.814;37.132;2023-04-06T04:21:55;8.43;;;5.03;;
71395;SDS011;59888;55.814;37.132;2023-04-06T04:24:29;8.73;;;4.85;;
71395;SDS011;59888;55.814;37.132;2023-04-06T04:26:55;7.13;;;4.40;;
71395;SDS011;59888;55.814;37.132;2023-04-06T04:29:22;8.10;;;4.68;;
71395;SDS011;59888;55.814;37.132;2023-04-06T04:31:50;9.77;;;4.88;;
71395;SDS011;59888;55.814;37.132;2023-04-06T04:34:17;9.02;;;4.50;;
71395;SDS011;59888;55.814;37.132;2023-04-06T04:36:46;8.20;;;4.15;;
71395;SDS011;59888;55.814;37.132;2023-04-06T04:39:20;7.65;;;4.20;;
71395;SDS011;59888;55.814;37.132;2023-04-06T04:41:55;9.60;;;5.03;;
71395;SDS011;59888;55.814;37.132;2023-04-06T04:44:21;7.65;;;4.13;;
71395;SDS011;59888;55.814;37.132;2023-04-06T04:46:47;7.70;;;4.40;;
71395;SDS011;59888;55.814;37.132;2023-04-06T04:49:15;8.63;;;4.30;;
71395;SDS011;59888;55.814;37.132;2023-04-06T04:51:42;8.55;;;4.78;;
71395;SDS011;59888;55.814;37.132;2023-04-06T04:54:16;10.05;;;4.45;;
71395;SDS011;59888;55.814;37.132;2023-04-06T04:56:42;8.65;;;4.55;;
71395;SDS011;59888;55.814;37.132;2023-04-06T04:59:24;8.63;;;4.28;;
71395;SDS011;59888;55.814;37.132;2023-04-06T05:01:57;7.30;;;4.03;;
71395;SDS011;59888;55.814;37.132;2023-04-06T05:04:32;6.53;;;3.75;;
71395;SDS011;59888;55.814;37.132;2023-04-06T05:07:07;8.90;;;4.20;;
71395;SDS011;59888;55.814;37.132;2023-04-06T05:09:36;15.05;;;6.80;;
71395;SDS011;59888;55.814;37.132;2023-04-06T05:12:03;7.97;;;4.00;;
71395;SDS011;59888;55.814;37.132;2023-04-06T05:14:33;7.45;;;3.80;;
71395;SDS011;59888;55.814;37.132;2023-04-06T05:17:02;7.45;;;3.60;;
71395;SDS011;59888;55.814;37.132;2023-04-06T05:19:29;8.15;;;4.00;;
71395;SDS011;59888;55.814;37.132;2023-04-06T05:21:56;7.97;;;3.78;;
71395;SDS011;59888;55.814;37.132;2023-04-06T05:24:22;7.32;;;3.75;;
71395;SDS011;59888;55.814;37.132;2023-04-06T05:26:49;6.40;;;3.47;;
71395;SDS011;59888;55.814;37.132;2023-04-06T05:29:21;6.78;;;3.83;;
71395;SDS011;59888;55.814;37.132;2023-04-06T05:31:47;7.20;;;3.72;;
71395;SDS011;59888;55.814;37.132;2023-04-06T05:34:13;6.50;;;3.60;;
71395;SDS011;59888;55.814;37.132;2023-04-06T05:36:39;7.13;;;4.03;;
71395;SDS011;59888;55.814;37.132;2023-04-06T05:39:15;10.48;;;3.55;;
71395;SDS011;59888;55.814;37.132;2023-04-06T05:41:48;5.93;;;3.67;;
71395;SDS011;59888;55.814;37.132;2023-04-06T05:44:18;6.60;;;3.83;;
71395;SDS011;59888;55.814;37.132;2023-04-06T05:46:49;5.68;;;3.42;;
71395;SDS011;59888;55.814;37.132;2023-04-06T05:49:16;6.35;;;4.15;;
71395;SDS011;59888;55.814;37.132;2023-04-06T05:51:42;7.88;;;3.80;;
71395;SDS011;59888;55.814;37.132;2023-04-06T05:54:08;7.03;;;3.25;;
71395;SDS011;59888;55.814;37.132;2023-04-06T05:56:34;6.53;;;3.75;;
71395;SDS011;59888;55.814;37.132;2023-04-06T05:59:01;10.23;;;4.22;;
71395;SDS011;59888;55.814;37.132;2023-04-06T06:01:29;6.93;;;3.53;;
71395;SDS011;59888;55.814;37.132;2023-04-06T06:03:54;7.57;;;3.72;;
71395;SDS011;59888;55.814;37.132;2023-04-06T06:06:24;5.25;;;3.38;;
71395;SDS011;59888;55.814;37.132;2023-04-06T06:09:13;6.63;;;3.40;;
71395;SDS011;59888;55.814;37.132;2023-04-06T06:11:46;7.30;;;3.45;;
71395;SDS011;59888;55.814;37.132;2023-04-06T06:14:15;8.00;;;3.80;;
71395;SDS011;59888;55.814;37.132;2023-04-06T06:16:42;5.88;;;3.38;;
71395;SDS011;59888;55.814;37.132;2023-04-06T06:19:11;8.25;;;4.00;;
71395;SDS011;59888;55.814;37.132;2023-04-06T06:21:37;7.43;;;3.92;;
71395;SDS011;59888;55.814;37.132;2023-04-06T06:24:05;9.65;;;3.55;;
71395;SDS011;59888;55.814;37.132;2023-04-06T06:26:32;8.07;;;3.65;;
71395;SDS011;59888;55.814;37.132;2023-04-06T06:29:01;7.88;;;3.65;;
71395;SDS011;59888;55.814;37.132;2023-04-06T06:31:27;6.85;;;3.50;;
71395;SDS011;59888;55.814;37.132;2023-04-06T06:33:53;6.93;;;4.13;;
71395;SDS011;59888;55.814;37.132;2023-04-06T06:36:20;7.10;;;4.28;;
71395;SDS011;59888;55.814;37.132;2023-04-06T06:38:46;7.63;;;4.07;;
71395;SDS011;59888;55.814;37.132;2023-04-06T06:41:15;7.07;;;3.60;;
71395;SDS011;59888;55.814;37.132;2023-04-06T06:43:41;6.28;;;3.47;;
71395;SDS011;59888;55.814;37.132;2023-04-06T06:46:09;9.00;;;3.50;;
71395;SDS011;59888;55.814;37.132;2023-04-06T06:48:40;5.43;;;3.28;;
71395;SDS011;59888;55.814;37.132;2023-04-06T06:51:05;7.60;;;3.58;;
71395;SDS011;59888;55.814;37.132;2023-04-06T06:53:31;6.43;;;3.53;;
71395;SDS011;59888;55.814;37.132;2023-04-06T06:55:57;8.20;;;3.60;;
71395;SDS011;59888;55.814;37.132;2023-04-06T06:58:23;8.68;;;3.47;;
71395;SDS011;59888;55.814;37.132;2023-04-06T07:00:49;6.15;;;3.45;;
71395;SDS011;59888;55.814;37.132;2023-04-06T07:03:15;6.88;;;3.60;;
71395;SDS011;59888;55.814;37.132;2023-04-06T07:05:45;6.60;;;3.08;;
71395;SDS011;59888;55.814;37.132;2023-04-06T07:08:22;6.38;;;3.45;;
71395;SDS011;59888;55.814;37.132;2023-04-06T07:10:50;7.53;;;3.45;;
71395;SDS011;59888;55.814;37.132;2023-04-06T07:13:18;10.57;;;3.53;;
71395;SDS011;59888;55.814;37.132;2023-04-06T07:15:49;5.97;;;3.47;;
71395;SDS011;59888;55.814;37.132;2023-04-06T07:18:16;7.60;;;3.40;;
71395;SDS011;59888;55.814;37.132;2023-04-06T07:20:42;9.23;;;3.30;;
71395;SDS011;59888;55.814;37.132;2023-04-06T07:23:08;4.43;;;2.60;;
71395;SDS011;59888;55.814;37.132;2023-04-06T07:25:34;5.97;;;3.22;;
71395;SDS011;59888;55.814;37.132;2023-04-06T07:28:01;8.77;;;3.20;;
71395;SDS011;59888;55.814;37.132;2023-04-06T07:30:29;5.55;;;3.17;;
71395;SDS011;59888;55.814;37.132;2023-04-06T07:32:55;6.45;;;3.58;;
71395;SDS011;59888;55.814;37.132;2023-04-06T07:35:23;8.27;;;3.25;;
71395;SDS011;59888;55.814;37.132;2023-04-06T07:37:49;9.20;;;3.38;;
71395;SDS011;59888;55.814;37.132;2023-04-06T07:40:15;5.70;;;3.38;;
71395;SDS011;59888;55.814;37.132;2023-04-06T07:42:42;10.73;;;4.38;;
71395;SDS011;59888;55.814;37.132;2023-04-06T07:45:09;8.00;;;3.70;;
71395;SDS011;59888;55.814;37.132;2023-04-06T07:47:35;6.05;;;3.22;;
71395;SDS011;59888;55.814;37.132;2023-04-06T07:50:02;6.25;;;3.53;;
71395;SDS011;59888;55.814;37.132;2023-04-06T07:52:29;7.65;;;3.55;;
71395;SDS011;59888;55.814;37.132;2023-04-06T07:54:56;5.63;;;3.03;;
71395;SDS011;59888;55.814;37.132;2023-04-06T07:57:22;6.90;;;3.00;;
71395;SDS011;59888;55.814;37.132;2023-04-06T07:59:47;5.40;;;3.33;;
71395;SDS011;59888;55.814;37.132;2023-04-06T08:02:13;4.75;;;3.00;;
71395;SDS011;59888;55.814;37.132;2023-04-06T08:04:40;6.65;;;3.03;;
71395;SDS011;59888;55.814;37.132;2023-04-06T08:07:05;7.68;;;2.80;;
71395;SDS011;59888;55.814;37.132;2023-04-06T08:09:32;7.32;;;2.50;;
71395;SDS011;59888;55.814;37.132;2023-04-06T08:11:57;5.05;;;2.95;;
71395;SDS011;59888;55.814;37.132;2023-04-06T08:14:23;7.15;;;2.70;;
71395;SDS011;59888;55.814;37.132;2023-04-06T08:16:49;7.43;;;2.67;;
71395;SDS011;59888;55.814;37.132;2023-04-06T08:19:15;6.03;;;3.00;;
71395;SDS011;59888;55.814;37.132;2023-04-06T08:21:44;5.50;;;2.88;;
71395;SDS011;59888;55.814;37.132;2023-04-06T08:24:11;5.40;;;2.28;;
71395;SDS011;59888;55.814;37.132;2023-04-06T08:26:37;7.57;;;2.55;;
71395;SDS011;59888;55.814;37.132;2023-04-06T08:29:03;5.20;;;2.33;;
71395;SDS011;59888;55.814;37.132;2023-04-06T08:31:29;5.93;;;2.72;;
71395;SDS011;59888;55.814;37.132;2023-04-06T08:33:55;4.15;;;2.40;;
71395;SDS011;59888;55.814;37.132;2023-04-06T08:36:21;6.63;;;2.80;;
71395;SDS011;59888;55.814;37.132;2023-04-06T08:38:48;6.32;;;2.30;;
71395;SDS011;59888;55.814;37.132;2023-04-06T08:41:15;5.15;;;2.30;;
71395;SDS011;59888;55.814;37.132;2023-04-06T08:44:03;3.30;;;2.05;;
71395;SDS011;59888;55.814;37.132;2023-04-06T08:46:30;7.35;;;2.58;;
71395;SDS011;59888;55.814;37.132;2023-04-06T08:49:00;5.05;;;2.30;;
71395;SDS011;59888;55.814;37.132;2023-04-06T08:51:27;5.95;;;2.50;;
71395;SDS011;59888;55.814;37.132;2023-04-06T08:53:56;6.88;;;2.13;;
71395;SDS011;59888;55.814;37.132;2023-04-06T08:56:24;5.25;;;2.05;;
71395;SDS011;59888;55.814;37.132;2023-04-06T08:58:55;4.07;;;2.10;;
71395;SDS011;59888;55.814;37.132;2023-04-06T09:01:23;12.23;;;2.67;;
71395;SDS011;59888;55.814;37.132;2023-04-06T09:03:51;7.70;;;2.30;;
71395;SDS011;59888;55.814;37.132;2023-04-06T09:06:30;5.63;;;2.30;;
71395;SDS011;59888;55.814;37.132;2023-04-06T09:08:56;6.68;;;2.10;;
71395;SDS011;59888;55.814;37.132;2023-04-06T09:11:23;4.50;;;2.15;;
71395;SDS011;59888;55.814;37.132;2023-04-06T09:16:16;5.45;;;2.30;;
71395;SDS011;59888;55.814;37.132;2023-04-06T09:18:43;7.88;;;2.40;;
71395;SDS011;59888;55.814;37.132;2023-04-06T09:21:09;4.03;;;2.22;;
71395;SDS011;59888;55.814;37.132;2023-04-06T09:23:35;6.72;;;2.30;;
71395;SDS011;59888;55.814;37.132;2023-04-06T09:26:05;5.35;;;2.30;;
71395;SDS011;59888;55.814;37.132;2023-04-06T09:31:08;7.00;;;2.42;;
71395;SDS011;59888;55.814;37.132;2023-04-06T09:33:38;7.45;;;2.28;;
71395;SDS011;59888;55.814;37.132;2023-04-06T09:36:06;5.97;;;2.28;;
71395;SDS011;59888;55.814;37.132;2023-04-06T09:38:38;8.98;;;2.10;;
71395;SDS011;59888;55.814;37.132;2023-04-06T09:41:20;7.05;;;2.13;;
71395;SDS011;59888;55.814;37.132;2023-04-06T09:46:34;6.65;;;2.30;;
71395;SDS011;59888;55.814;37.132;2023-04-06T09:49:06;7.78;;;2.20;;
71395;SDS011;59888;55.814;37.132;2023-04-06T09:54:04;6.32;;;2.15;;
71395;SDS011;59888;55.814;37.132;2023-04-06T09:56:33;9.05;;;2.10;;
71395;SDS011;59888;55.814;37.132;2023-04-06T09:59:08;5.80;;;2.00;;
71395;SDS011;59888;55.814;37.132;2023-04-06T10:01:38;7.15;;;2.38;;
71395;SDS011;59888;55.814;37.132;2023-04-06T10:07:04;6.10;;;2.00;;
71395;SDS011;59888;55.814;37.132;2023-04-06T10:09:32;4.43;;;1.90;;
71395;SDS011;59888;55.814;37.132;2023-04-06T10:12:07;6.93;;;2.22;;
71395;SDS011;59888;55.814;37.132;2023-04-06T10:14:33;6.63;;;2.33;;
71395;SDS011;59888;55.814;37.132;2023-04-06T10:17:03;7.70;;;2.00;;
71395;SDS011;59888;55.814;37.132;2023-04-06T10:19:41;4.80;;;2.08;;
71395;SDS011;59888;55.814;37.132;2023-04-06T10:22:26;5.15;;;1.90;;
71395;SDS011;59888;55.814;37.132;2023-04-06T10:25:25;4.75;;;2.20;;
71395;SDS011;59888;55.814;37.132;2023-04-06T10:27:58;8.23;;;1.90;;
71395;SDS011;59888;55.814;37.132;2023-04-06T10:30:34;5.45;;;2.10;;
71395;SDS011;59888;55.814;37.132;2023-04-06T10:33:00;9.30;;;1.98;;
71395;SDS011;59888;55.814;37.132;2023-04-06T10:35:36;2.67;;;1.70;;
71395;SDS011;59888;55.814;37.132;2023-04-06T10:38:05;6.03;;;1.95;;
71395;SDS011;59888;55.814;37.132;2023-04-06T10:40:32;4.50;;;1.67;;
71395;SDS011;59888;55.814;37.132;2023-04-06T10:43:09;8.27;;;2.13;;
71395;SDS011;59888;55.814;37.132;2023-04-06T10:45:40;7.40;;;2.00;;
71395;SDS011;59888;55.814;37.132;2023-04-06T10:48:15;5.38;;;2.10;;
71395;SDS011;59888;55.814;37.132;2023-04-06T10:50:49;10.73;;;2.50;;
71395;SDS011;59888;55.814;37.132;2023-04-06T10:53:22;6.60;;;2.00;;
71395;SDS011;59888;55.814;37.132;2023-04-06T10:55:50;7.93;;;2.30;;
71395;SDS011;59888;55.814;37.132;2023-04-06T10:58:17;4.35;;;2.25;;
71395;SDS011;59888;55.814;37.132;2023-04-06T11:00:44;6.07;;;2.10;;
71395;SDS011;59888;55.814;37.132;2023-04-06T11:03:10;8.55;;;2.20;;
71395;SDS011;59888;55.814;37.132;2023-04-06T11:05:36;4.95;;;2.10;;
71395;SDS011;59888;55.814;37.132;2023-04-06T11:08:02;10.45;;;2.10;;
71395;SDS011;59888;55.814;37.132;2023-04-06T11:10:28;8.23;;;2.33;;
71395;SDS011;59888;55.814;37.132;2023-04-06T11:12:55;12.00;;;2.47;;
71395;SDS011;59888;55.814;37.132;2023-04-06T11:15:22;9.07;;;2.30;;
71395;SDS011;59888;55.814;37.132;2023-04-06T11:17:48;7.28;;;2.25;;
71395;SDS011;59888;55.814;37.132;2023-04-06T11:20:15;5.72;;;2.08;;
71395;SDS011;59888;55.814;37.132;2023-04-06T11:22:52;6.57;;;2.20;;
71395;SDS011;59888;55.814;37.132;2023-04-06T11:25:18;3.83;;;1.77;;
71395;SDS011;59888;55.814;37.132;2023-04-06T11:27:45;7.65;;;2.22;;
71395;SDS011;59888;55.814;37.132;2023-04-06T11:30:12;10.43;;;2.45;;
71395;SDS011;59888;55.814;37.132;2023-04-06T11:32:39;7.85;;;2.25;;
71395;SDS011;59888;55.814;37.132;2023-04-06T11:35:10;5.82;;;2.00;;
71395;SDS011;59888;55.814;37.132;2023-04-06T11:37:37;5.80;;;2.10;;
71395;SDS011;59888;55.814;37.132;2023-04-06T11:40:02;8.70;;;2.38;;
71395;SDS011;59888;55.814;37.132;2023-04-06T11:42:29;4.95;;;1.92;;
71395;SDS011;59888;55.814;37.132;2023-04-06T11:44:56;7.53;;;1.95;;
71395;SDS011;59888;55.814;37.132;2023-04-06T11:47:35;11.63;;;2.30;;
71395;SDS011;59888;55.814;37.132;2023-04-06T11:50:09;6.43;;;2.40;;
71395;SDS011;59888;55.814;37.132;2023-04-06T11:52:37;7.78;;;2.30;;
71395;SDS011;59888;55.814;37.132;2023-04-06T11:55:17;7.78;;;2.30;;
71395;SDS011;59888;55.814;37.132;2023-04-06T11:57:44;7.45;;;2.55;;
71395;SDS011;59888;55.814;37.132;2023-04-06T12:00:10;9.45;;;2.15;;
71395;SDS011;59888;55.814;37.132;2023-04-06T12:02:37;6.45;;;2.30;;
71395;SDS011;59888;55.814;37.132;2023-04-06T12:05:04;5.05;;;2.13;;
71395;SDS011;59888;55.814;37.132;2023-04-06T12:07:32;6.70;;;1.92;;
71395;SDS011;59888;55.814;37.132;2023-04-06T12:10:00;4.45;;;1.67;;
71395;SDS011;59888;55.814;37.132;2023-04-06T12:12:28;4.15;;;1.77;;
71395;SDS011;59888;55.814;37.132;2023-04-06T12:14:55;6.32;;;2.10;;
71395;SDS011;59888;55.814;37.132;2023-04-06T12:17:22;4.97;;;1.90;;
71395;SDS011;59888;55.814;37.132;2023-04-06T12:19:48;7.00;;;2.30;;
71395;SDS011;59888;55.814;37.132;2023-04-06T12:22:14;4.20;;;2.00;;
71395;SDS011;59888;55.814;37.132;2023-04-06T12:24:41;9.70;;;1.77;;
71395;SDS011;59888;55.814;37.132;2023-04-06T12:27:07;4.53;;;1.90;;
71395;SDS011;59888;55.814;37.132;2023-04-06T12:29:35;7.05;;;1.88;;
71395;SDS011;59888;55.814;37.132;2023-04-06T12:32:01;6.18;;;2.15;;
71395;SDS011;59888;55.814;37.132;2023-04-06T12:34:27;4.13;;;1.80;;
71395;SDS011;59888;55.814;37.132;2023-04-06T12:36:54;7.90;;;2.22;;
71395;SDS011;59888;55.814;37.132;2023-04-06T12:39:21;8.05;;;3.20;;
71395;SDS011;59888;55.814;37.132;2023-04-06T12:41:47;10.40;;;3.25;;
71395;SDS011;59888;55.814;37.132;2023-04-06T12:44:13;4.55;;;2.13;;
71395;SDS011;59888;55.814;37.132;2023-04-06T12:46:39;8.23;;;2.22;;
71395;SDS011;59888;55.814;37.132;2023-04-06T12:49:06;11.68;;;2.88;;
71395;SDS011;59888;55.814;37.132;2023-04-06T12:51:32;7.70;;;2.00;;
71395;SDS011;59888;55.814;37.132;2023-04-06T12:53:58;7.70;;;1.92;;
71395;SDS011;59888;55.814;37.132;2023-04-06T12:56:25;3.08;;;1.77;;
71395;SDS011;59888;55.814;37.132;2023-04-06T12:58:51;5.68;;;2.00;;
71395;SDS011;59888;55.814;37.132;2023-04-06T13:01:17;4.65;;;1.75;;
71395;SDS011;59888;55.814;37.132;2023-04-06T13:03:44;4.38;;;1.88;;
71395;SDS011;59888;55.814;37.132;2023-04-06T13:06:10;4.82;;;1.85;;
71395;SDS011;59888;55.814;37.132;2023-04-06T13:08:36;6.15;;;2.08;;
71395;SDS011;59888;55.814;37.132;2023-04-06T13:11:04;4.50;;;1.85;;
71395;SDS011;59888;55.814;37.132;2023-04-06T13:13:33;7.43;;;1.80;;
71395;SDS011;59888;55.814;37.132;2023-04-06T13:16:06;4.18;;;1.80;;
71395;SDS011;59888;55.814;37.132;2023-04-06T13:18:33;4.22;;;1.80;;
71395;SDS011;59888;55.814;37.132;2023-04-06T13:21:00;6.15;;;1.80;;
71395;SDS011;59888;55.814;37.132;2023-04-06T13:23:26;6.50;;;1.95;;
71395;SDS011;59888;55.814;37.132;2023-04-06T13:26:02;8.45;;;2.03;;
71395;SDS011;59888;55.814;37.132;2023-04-06T13:28:29;6.50;;;2.40;;
71395;SDS011;59888;55.814;37.132;2023-04-06T13:30:57;3.92;;;1.92;;
71395;SDS011;59888;55.814;37.132;2023-04-06T13:33:24;4.40;;;2.10;;
71395;SDS011;59888;55.814;37.132;2023-04-06T13:35:50;3.83;;;1.77;;
71395;SDS011;59888;55.814;37.132;2023-04-06T13:38:16;6.30;;;1.90;;
71395;SDS011;59888;55.814;37.132;2023-04-06T13:40:42;5.70;;;2.00;;
71395;SDS011;59888;55.814;37.132;2023-04-06T13:43:07;6.07;;;2.00;;
71395;SDS011;59888;55.814;37.132;2023-04-06T13:45:33;7.18;;;1.85;;
71395;SDS011;59888;55.814;37.132;2023-04-06T13:47:59;7.32;;;2.08;;
71395;SDS011;59888;55.814;37.132;2023-04-06T13:50:25;5.82;;;2.08;;
71395;SDS011;59888;55.814;37.132;2023-04-06T13:52:52;5.00;;;1.90;;
71395;SDS011;59888;55.814;37.132;2023-04-06T13:55:18;8.27;;;1.90;;
71395;SDS011;59888;55.814;37.132;2023-04-06T13:57:43;3.70;;;1.70;;
71395;SDS011;59888;55.814;37.132;2023-04-06T14:00:10;4.57;;;1.83;;
71395;SDS011;59888;55.814;37.132;2023-04-06T14:02:38;4.97;;;1.63;;
71395;SDS011;59888;55.814;37.132;2023-04-06T14:05:05;5.20;;;1.63;;
71395;SDS011;59888;55.814;37.132;2023-04-06T14:07:31;8.90;;;1.95;;
71395;SDS011;59888;55.814;37.132;2023-04-06T14:09:57;4.13;;;1.52;;
71395;SDS011;59888;55.814;37.132;2023-04-06T14:12:23;3.47;;;1.30;;
71395;SDS011;59888;55.814;37.132;2023-04-06T14:14:49;4.95;;;1.33;;
71395;SDS011;59888;55.814;37.132;2023-04-06T14:17:15;7.13;;;1.40;;
71395;SDS011;59888;55.814;37.132;2023-04-06T14:19:41;4.93;;;1.70;;
71395;SDS011;59888;55.814;37.132;2023-04-06T14:22:08;2.83;;;1.70;;
71395;SDS011;59888;55.814;37.132;2023-04-06T14:24:34;5.45;;;1.80;;
71395;SDS011;59888;55.814;37.132;2023-04-06T14:27:01;4.57;;;1.70;;
71395;SDS011;59888;55.814;37.132;2023-04-06T14:29:27;2.95;;;1.38;;
71395;SDS011;59888;55.814;37.132;2023-04-06T14:31:53;7.25;;;1.60;;
71395;SDS011;59888;55.814;37.132;2023-04-06T14:34:27;3.17;;;1.50;;
71395;SDS011;59888;55.814;37.132;2023-04-06T14:36:54;3.35;;;1.70;;
71395;SDS011;59888;55.814;37.132;2023-04-06T14:39:20;5.05;;;2.20;;
71395;SDS011;59888;55.814;37.132;2023-04-06T14:41:46;3.25;;;1.60;;
71395;SDS011;59888;55.814;37.132;2023-04-06T14:44:15;4.65;;;2.40;;
71395;SDS011;59888;55.814;37.132;2023-04-06T14:46:41;3.05;;;1.92;;
71395;SDS011;59888;55.814;37.132;2023-04-06T14:49:07;3.85;;;1.98;;
71395;SDS011;59888;55.814;37.132;2023-04-06T14:51:33;2.58;;;1.40;;
71395;SDS011;59888;55.814;37.132;2023-04-06T14:54:00;3.78;;;1.63;;